Finley, WA

4:27 AM PST on January 29, 2015 (GMT -0800)
KD7KJJ - EAST KENNEWICK | Change Station
CLOSE
Current Station
Personal Weather Station
Location: KENNEWICK, WA
Elevation: 400 ft
Nearby Weather Stations

Elev 400 ft 46.20 °N, 119.10 °W | Updated 8 seconds ago

Overcast
Overcast
38.3 °F
Feels Like 38 °F
N
0.0
Wind Variable Wind from SE
Gusts 1.6 mph

Today
High -- | Low -- °F
--% Chance of Precip.
Yesterday
High -- | Low -- °F
Precip. -- in
7:22 AM 4:56 PM
Waxing Gibbous, 74% visible
Pressure 30.51 in
Visibility 10.0 miles
Clouds Overcast 1500 ft
Windchill 38 °F
Dew Point 34 °F
Humidity 85%
Rainfall 0.00 in
Snow Depth Not available.
UV 0 out of 12
Pollen 2.80 out of 12
Air Quality Not available.
Flu Activity Not available.
METAR KPSC 291153Z AUTO 34003KT 10SM OVC015 03/02 A3050 RMK AO2 SLP332 T00330022 10033 20028 51003 $

More Conditions Fewer Conditions

Pressure 30.51 in
Visibility 10.0 miles
Clouds Overcast 1500 ft
Windchill 38 °F
Dew Point 34 °F
Humidity 85%
Rainfall 0.00 in
Snow Depth Not available.
UV 0 out of 12
Pollen 2.80 out of 12
Air Quality Not available.
Flu Activity Not available.
METAR KPSC 291153Z AUTO 34003KT 10SM OVC015 03/02 A3050 RMK AO2 SLP332 T00330022 10033 20028 51003 $

More Conditions Fewer Conditions

10-Day Weather Forecast

Almanac

Astronomy

Jan. 29, 2015 Rise Set
Actual Time
Civil Twilight
Nautical Twilight
Astronomical Twilight
Moon
Length of Visible Light
Length of Day
Tomorrow will be .
, % of the Moon is Illuminated

Today's Extremes

State Highs State Lows

Community

WunderPhotos

Upload Photos

1,791,420 photos uploaded!

WunderBlogs® & News

Nearby

Air Quality

  Air Quality AQ Index Pollutant
Not available.

Snow Depth

Station Depth Elevation

Earthquake Activity

City Distance Mag. Time & Date
Minimum magnitude displayed is 2.5.

Coastal Water Temperatures

Place Temperature

Nearby Weather Stations